Main page
METAR-TAF:

METAR-TAF

Airports :

A Coruña Airport

A Coruña, Spain

latitude: 43-18N, longitude: 008-23W, elevation: 97 m

Current weather observation

The report was made 21 minutes ago, at 03:00 UTC
Wind 3 kt from the North/Northwest, varying between Northwest and North/Northeast
Temperature 15°C
Humidity 72%
Pressure 1027 hPa
Visibility 10 km or more
no clouds below 1500 m and no cumulonimbus

METAR: LECO 260300Z AUTO 34003KT 310V030 CAVOK 15/10 Q1027

Time: 05:21 (03:21 UTC)

Forecast

The report was made 1 hour and 21 minutes ago, at 02:00 UTC
Forecast valid from 26 at 03 UTC to 27 at 03 UTC
Wind 9 kt from the North/Northeast
Visibility 10 km or more
no clouds below 1500 m and no cumulonimbus
Temporary
from 26 at 11 UTC to 26 at 18 UTC
Wind 15 kt from the Northeast with gusts up to 25 kt

TAF: LECO 260200Z 2603/2703 02009KT CAVOK TX24/2614Z TN12/2605Z TEMPO 2611/2618 05015G25KT

Weather observations and forecasts of more than 4000 airports (METAR and TAF reports).

The available stations are represented by yellow and red dots on the map.

Hover mouse over dot to see the name of the station.

Then click to see weather observations and forecasts.

To change the map : click on the green buttons with a black cross to zoom in, on the green button with a dash to zoom out, or on the green arrows for adjacent maps.


METAR-TAF: